Time;durP1;ratioP1;P1;durP2;ratioP2;P2;SDS_P1;SDS_P2;PMS_P1;PMS_P2;Temp;Humidity;BMP_temperature;BMP_pressure;BME280_temperature;BME280_humidity;BME280_pressure;Samples;Min_cycle;Max_cycle;Signal;HPM_P1;HPM_P2
2023/05/23 00:00:59;;;;;;;46.03;12.60;;;;;;;13.22;100.00;102067.69;5084702;28;20434;-48
2023/05/23 00:03:25;;;;;;;42.75;13.13;;;;;;;13.18;100.00;102061.78;5089750;28;20077;-45
2023/05/23 00:05:51;;;;;;;43.25;11.70;;;;;;;13.19;100.00;102063.47;5078850;28;20454;-46
2023/05/23 00:08:17;;;;;;;40.53;11.75;;;;;;;13.20;100.00;102054.38;5086624;28;20031;-48
2023/05/23 00:10:43;;;;;;;36.08;11.45;;;;;;;13.23;100.00;102058.59;5088336;28;20035;-45
2023/05/23 00:13:11;;;;;;;26.77;10.45;;;;;;;13.26;100.00;102069.06;5086136;28;20029;-47
2023/05/23 00:15:37;;;;;;;30.75;10.25;;;;;;;13.26;100.00;102053.72;5073082;28;20024;-47
2023/05/23 00:18:04;;;;;;;31.00;10.07;;;;;;;13.29;100.00;102061.47;5072173;28;20381;-49
2023/05/23 00:20:29;;;;;;;39.60;11.10;;;;;;;13.35;100.00;102063.53;5072792;28;20467;-47
2023/05/23 00:22:57;;;;;;;49.15;12.35;;;;;;;13.32;100.00;102066.56;5071844;28;20024;-47
2023/05/23 00:25:23;;;;;;;61.80;13.32;;;;;;;13.30;100.00;102068.59;5072212;28;20074;-48
2023/05/23 00:27:49;;;;;;;46.55;12.35;;;;;;;13.28;100.00;102067.06;5072741;28;20032;-47
2023/05/23 00:30:15;;;;;;;44.13;12.55;;;;;;;13.32;100.00;102076.53;5074281;28;20036;-45
2023/05/23 00:32:40;;;;;;;49.85;11.35;;;;;;;13.29;100.00;102080.41;5091895;28;20028;-44
2023/05/23 00:35:06;;;;;;;52.92;12.45;;;;;;;13.34;100.00;102078.03;5092926;28;20104;-47
2023/05/23 00:37:33;;;;;;;52.25;12.43;;;;;;;13.30;100.00;102075.88;5091434;28;20060;-46
2023/05/23 00:39:58;;;;;;;55.97;12.80;;;;;;;13.24;100.00;102080.03;5092745;28;20028;-48
2023/05/23 00:42:24;;;;;;;58.90;12.48;;;;;;;13.24;100.00;102084.59;5076537;28;20501;-48
2023/05/23 00:44:49;;;;;;;52.03;13.10;;;;;;;13.25;100.00;102081.75;5074530;28;20036;-47
2023/05/23 00:47:14;;;;;;;55.83;12.35;;;;;;;13.37;100.00;102077.69;5071652;28;20093;-48
2023/05/23 00:49:40;;;;;;;38.85;10.80;;;;;;;13.36;100.00;102070.59;5087535;28;20056;-46
2023/05/23 00:52:05;;;;;;;49.35;11.95;;;;;;;13.41;100.00;102077.38;5088091;28;20386;-47
2023/05/23 00:54:31;;;;;;;47.33;11.27;;;;;;;13.38;100.00;102073.16;5071592;28;20050;-46
2023/05/23 00:56:57;;;;;;;52.38;10.57;;;;;;;13.42;100.00;102070.94;5038271;28;20448;-47
2023/05/23 00:59:26;;;;;;;41.22;10.00;;;;;;;13.41;100.00;102071.97;5079302;28;20028;-44
2023/05/23 01:01:51;;;;;;;48.08;10.48;;;;;;;13.38;100.00;102068.59;5082566;28;20163;-46
2023/05/23 01:04:18;;;;;;;42.63;9.45;;;;;;;13.42;100.00;102065.53;5087656;28;20544;-47
2023/05/23 01:06:45;;;;;;;39.47;8.83;;;;;;;13.45;100.00;102063.31;5089209;28;20462;-46
2023/05/23 01:09:12;;;;;;;44.60;8.82;;;;;;;13.56;100.00;102062.13;5076614;28;20514;-47
2023/05/23 01:11:46;;;;;;;51.45;9.82;;;;;;;13.52;100.00;102052.69;5077220;28;20020;-48
2023/05/23 01:14:17;;;;;;;40.17;8.70;;;;;;;13.48;100.00;102046.78;5087351;28;20054;-48
2023/05/23 01:17:02;;;;;;;52.78;8.85;;;;;;;13.50;100.00;102049.28;5072539;28;20044;-47
2023/05/23 01:19:40;;;;;;;42.20;9.30;;;;;;;13.45;100.00;102048.97;5075410;28;20034;-48
2023/05/23 01:22:15;;;;;;;47.35;9.75;;;;;;;13.46;100.00;102054.22;5081587;28;20587;-49
2023/05/23 01:24:54;;;;;;;46.20;8.90;;;;;;;13.39;100.00;102056.75;5080866;28;20028;-46
2023/05/23 01:27:49;;;;;;;39.55;7.88;;;;;;;13.48;100.00;102062.13;5089220;28;20028;-46
2023/05/23 01:30:17;;;;;;;50.72;10.00;;;;;;;13.48;100.00;102056.72;5077973;28;20040;-47
2023/05/23 01:32:44;;;;;;;32.47;8.57;;;;;;;13.48;100.00;102062.13;5072910;28;20116;-47
2023/05/23 01:35:09;;;;;;;53.28;8.88;;;;;;;13.45;100.00;102062.47;5072834;28;20044;-48
2023/05/23 01:37:35;;;;;;;38.15;8.52;;;;;;;13.51;100.00;102061.81;5081237;28;20478;-45
2023/05/23 01:40:00;;;;;;;43.28;8.45;;;;;;;13.51;100.00;102056.41;5080893;28;20467;-47
2023/05/23 01:42:27;;;;;;;49.75;9.95;;;;;;;13.48;100.00;102051.31;5083718;28;20397;-48
2023/05/23 01:44:52;;;;;;;41.10;8.05;;;;;;;13.55;100.00;102061.28;5071751;28;20113;-48
2023/05/23 01:47:18;;;;;;;44.22;8.65;;;;;;;13.55;100.00;102058.56;5071169;28;20045;-46
2023/05/23 01:49:44;;;;;;;40.28;7.93;;;;;;;13.48;100.00;102065.72;5071645;28;20032;-47
2023/05/23 01:52:09;;;;;;;46.65;8.30;;;;;;;13.48;100.00;102067.53;5071439;28;20028;-46
2023/05/23 01:54:36;;;;;;;43.13;9.27;;;;;;;13.45;100.00;102065.19;5079157;28;20044;-44
2023/05/23 01:57:02;;;;;;;40.92;8.68;;;;;;;13.37;100.00;102055.22;5082706;28;20078;-46
2023/05/23 01:59:27;;;;;;;36.80;8.07;;;;;;;13.41;100.00;102063.84;5083425;28;20032;-46
2023/05/23 02:01:53;;;;;;;47.78;8.95;;;;;;;13.42;100.00;102057.41;5078074;28;20059;-43
2023/05/23 02:04:18;;;;;;;43.30;8.98;;;;;;;13.48;100.00;102070.25;5079108;28;20065;-47
2023/05/23 02:06:43;;;;;;;40.40;8.43;;;;;;;13.45;100.00;102063.31;5086435;28;20028;-46
2023/05/23 02:09:09;;;;;;;50.13;8.30;;;;;;;13.47;100.00;102065.88;5071062;28;20025;-45
2023/05/23 02:11:34;;;;;;;49.35;7.95;;;;;;;13.33;100.00;102079.06;5073390;28;20060;-46
2023/05/23 02:14:01;;;;;;;40.88;9.32;;;;;;;13.36;100.00;102069.78;5077012;28;20043;-46
2023/05/23 02:16:26;;;;;;;35.88;8.02;;;;;;;13.36;100.00;102076.00;5091133;28;20036;-46
2023/05/23 02:18:55;;;;;;;44.92;7.68;;;;;;;13.36;100.00;102084.13;5077659;28;20067;-47
2023/05/23 02:21:20;;;;;;;42.63;7.53;;;;;;;13.30;100.00;102082.13;5082918;28;20024;-47
2023/05/23 02:23:46;;;;;;;42.15;8.50;;;;;;;13.28;100.00;102084.13;5084843;28;20059;-47
2023/05/23 02:26:11;;;;;;;36.78;8.38;;;;;;;13.41;100.00;102082.78;5081226;28;20465;-47
2023/05/23 02:28:36;;;;;;;34.08;7.72;;;;;;;13.35;100.00;102095.13;5082189;28;20471;-45
2023/05/23 02:31:02;;;;;;;43.72;8.27;;;;;;;13.32;100.00;102093.63;5067184;28;20035;-48
2023/05/23 02:33:27;;;;;;;39.10;7.75;;;;;;;13.30;100.00;102092.94;5077474;28;20032;-49
2023/05/23 02:35:54;;;;;;;37.20;7.95;;;;;;;13.21;100.00;102091.19;5076169;28;20455;-46
2023/05/23 02:38:19;;;;;;;44.20;7.25;;;;;;;13.20;100.00;102094.91;5087590;28;20120;-49
2023/05/23 02:40:44;;;;;;;38.42;8.20;;;;;;;13.20;100.00;102094.91;5087956;28;20138;-45
2023/05/23 02:43:10;;;;;;;49.72;7.43;;;;;;;13.19;100.00;102098.63;5076408;28;20039;-46
2023/05/23 02:45:35;;;;;;;39.33;7.15;;;;;;;13.22;100.00;102101.00;5075049;28;20051;-46
2023/05/23 02:48:00;;;;;;;41.63;6.38;;;;;;;13.25;100.00;102105.22;5081512;28;20036;-45
2023/05/23 02:50:26;;;;;;;38.53;8.57;;;;;;;13.22;100.00;102106.41;5084862;28;20097;-46
2023/05/23 02:52:51;;;;;;;51.15;7.43;;;;;;;13.29;100.00;102106.59;5071843;28;20363;-46
2023/05/23 02:55:16;;;;;;;40.22;7.82;;;;;;;13.20;100.00;102107.59;5077229;28;20479;-45
2023/05/23 02:57:42;;;;;;;33.35;6.93;;;;;;;13.20;100.00;102118.41;5083236;28;20397;-48
2023/05/23 03:00:09;;;;;;;37.95;7.88;;;;;;;13.18;100.00;102118.56;5084886;28;20524;-47
2023/05/23 03:02:34;;;;;;;49.92;6.97;;;;;;;13.16;100.00;102116.03;5073498;28;20032;-46
2023/05/23 03:05:00;;;;;;;42.05;7.18;;;;;;;13.07;100.00;102113.50;5081595;28;20553;-45
2023/05/23 03:07:25;;;;;;;34.50;6.85;;;;;;;13.02;100.00;102118.56;5074877;28;20054;-46
2023/05/23 03:09:51;;;;;;;40.40;6.72;;;;;;;13.04;100.00;102119.25;5089805;28;20080;-48
2023/05/23 03:12:16;;;;;;;37.00;6.82;;;;;;;13.04;100.00;102114.66;5082239;28;20020;-48
2023/05/23 03:14:42;;;;;;;27.52;5.90;;;;;;;13.00;100.00;102117.88;5087216;28;20028;-45
2023/05/23 03:17:07;;;;;;;33.28;6.70;;;;;;;12.97;100.00;102113.63;5081927;28;20027;-46
2023/05/23 03:19:32;;;;;;;41.17;6.43;;;;;;;12.87;100.00;102112.94;5076408;28;20047;-49
2023/05/23 03:21:58;;;;;;;28.83;6.43;;;;;;;12.89;100.00;102119.88;5078374;28;20036;-48
2023/05/23 03:24:23;;;;;;;30.58;6.65;;;;;;;12.83;100.00;102117.84;5084554;28;20123;-47
2023/05/23 03:26:48;;;;;;;31.40;5.90;;;;;;;12.85;100.00;102118.53;5078423;28;20470;-49
2023/05/23 03:29:14;;;;;;;27.88;6.13;;;;;;;12.80;100.00;102109.25;5071912;28;20028;-45
2023/05/23 03:31:39;;;;;;;28.52;5.97;;;;;;;12.81;100.00;102110.91;5080641;28;20028;-44
2023/05/23 03:34:04;;;;;;;38.33;6.82;;;;;;;12.83;100.00;102106.19;5076067;28;20073;-47
2023/05/23 03:36:32;;;;;;;33.50;6.85;;;;;;;12.82;100.00;102118.00;5087493;28;20107;-44
2023/05/23 03:38:58;;;;;;;22.80;5.50;;;;;;;12.81;100.00;102122.56;5073472;28;20039;-48
2023/05/23 03:41:23;;;;;;;22.50;5.75;;;;;;;12.89;100.00;102117.16;5082909;28;20025;-46
2023/05/23 03:43:48;;;;;;;25.48;6.15;;;;;;;12.89;100.00;102117.16;5072666;28;20067;-48
2023/05/23 03:46:14;;;;;;;26.95;6.20;;;;;;;12.88;100.00;102126.31;5059019;28;20431;-44
2023/05/23 03:48:39;;;;;;;25.00;6.30;;;;;;;12.82;100.00;102121.56;5071884;28;20115;-46
2023/05/23 03:51:05;;;;;;;34.63;7.15;;;;;;;12.77;100.00;102117.66;5078752;28;20024;-46
2023/05/23 03:53:30;;;;;;;30.08;6.78;;;;;;;12.62;100.00;102130.97;5090072;28;20044;-45
2023/05/23 03:55:56;;;;;;;30.70;6.35;;;;;;;12.56;100.00;102132.47;5072156;28;20021;-48
2023/05/23 03:58:21;;;;;;;22.65;5.43;;;;;;;12.48;100.00;102135.97;5088558;28;20067;-48
2023/05/23 04:00:46;;;;;;;37.08;6.55;;;;;;;12.40;100.00;102133.25;5083816;28;20027;-48
2023/05/23 04:03:16;;;;;;;31.02;6.82;;;;;;;12.39;100.00;102146.91;5071305;28;20064;-46
2023/05/23 04:05:41;;;;;;;28.58;6.57;;;;;;;12.35;100.00;102141.00;5070853;28;20036;-47
2023/05/23 04:08:07;;;;;;;28.83;6.80;;;;;;;12.32;100.00;102146.69;5082160;28;20039;-47
2023/05/23 04:10:32;;;;;;;25.85;7.00;;;;;;;12.38;100.00;102151.47;5075049;28;20033;-46
2023/05/23 04:12:58;;;;;;;32.17;7.53;;;;;;;12.41;100.00;102153.84;5082008;28;20498;-46
2023/05/23 04:15:24;;;;;;;38.47;7.85;;;;;;;12.45;100.00;102160.59;5078701;28;20336;-46
2023/05/23 04:17:50;;;;;;;42.00;8.52;;;;;;;12.37;100.00;102160.53;5078016;28;20121;-45
2023/05/23 04:20:16;;;;;;;26.48;8.00;;;;;;;12.47;100.00;102158.56;5078529;28;20071;-49
2023/05/23 04:22:41;;;;;;;34.45;8.43;;;;;;;12.51;100.00;102157.25;5087709;28;20046;-47
2023/05/23 04:25:08;;;;;;;42.40;9.98;;;;;;;12.45;100.00;102157.91;5089491;28;20030;-47
2023/05/23 04:27:34;;;;;;;34.55;8.25;;;;;;;12.56;100.00;102159.47;5089985;28;20046;-46
2023/05/23 04:29:59;;;;;;;26.50;7.55;;;;;;;12.56;100.00;102158.59;5077537;28;20032;-45
2023/05/23 04:32:25;;;;;;;29.02;7.88;;;;;;;12.62;100.00;102157.97;5077557;28;20032;-48
2023/05/23 04:34:51;;;;;;;35.33;8.30;;;;;;;12.62;100.00;102169.63;5062161;28;20035;-45
2023/05/23 04:37:20;;;;;;;34.35;8.95;;;;;;;12.59;100.00;102155.59;5080440;28;20048;-46
2023/05/23 04:39:49;;;;;;;31.55;8.15;;;;;;;12.65;100.00;102168.44;5078009;28;20039;-47
2023/05/23 04:42:14;;;;;;;44.90;8.95;;;;;;;12.63;100.00;102171.28;5080457;28;20079;-48
2023/05/23 04:44:40;;;;;;;35.55;8.57;;;;;;;12.69;100.00;102169.78;5089711;28;20063;-46
2023/05/23 04:47:07;;;;;;;35.92;8.57;;;;;;;12.57;100.00;102171.97;5083742;28;20027;-46
2023/05/23 04:49:33;;;;;;;30.60;9.47;;;;;;;12.62;100.00;102182.28;5086562;28;20111;-46
2023/05/23 04:51:58;;;;;;;35.20;9.18;;;;;;;12.52;100.00;102185.09;5077877;28;20112;-47
2023/05/23 04:54:24;;;;;;;33.85;8.00;;;;;;;12.56;100.00;102191.00;5080267;28;20080;-47
2023/05/23 04:56:50;;;;;;;30.90;8.18;;;;;;;12.49;100.00;102183.56;5072524;28;20050;-44
2023/05/23 04:59:15;;;;;;;30.27;7.55;;;;;;;12.50;100.00;102193.34;5088357;28;20028;-46
2023/05/23 05:01:40;;;;;;;38.30;8.93;;;;;;;12.47;100.00;102193.66;5090995;28;20019;-45
2023/05/23 05:04:06;;;;;;;31.25;8.43;;;;;;;12.57;100.00;102193.56;5088671;28;20032;-46
2023/05/23 05:06:32;;;;;;;30.45;8.98;;;;;;;12.61;100.00;102199.47;5072760;28;20043;-46
2023/05/23 05:08:57;;;;;;;43.95;9.60;;;;;;;12.57;100.00;102192.72;5080398;28;20439;-47
2023/05/23 05:11:22;;;;;;;29.02;7.95;;;;;;;12.58;100.00;102205.19;5072757;28;20037;-46
2023/05/23 05:13:48;;;;;;;30.95;8.60;;;;;;;12.58;100.00;102207.91;5078612;28;20473;-45
2023/05/23 05:16:13;;;;;;;25.23;7.32;;;;;;;12.61;100.00;102196.78;5084829;28;20032;-46
2023/05/23 05:18:39;;;;;;;36.72;8.35;;;;;;;12.55;100.00;102205.53;5086134;28;20054;-49
2023/05/23 05:21:05;;;;;;;44.60;8.30;;;;;;;12.55;100.00;102213.63;5091036;28;20031;-45
2023/05/23 05:23:30;;;;;;;33.67;7.88;;;;;;;12.49;100.00;102224.06;5092448;28;20051;-45
2023/05/23 05:25:56;;;;;;;24.90;7.43;;;;;;;12.47;100.00;102215.28;5084859;28;20051;-46
2023/05/23 05:28:22;;;;;;;28.15;8.10;;;;;;;12.47;100.00;102209.88;5053222;28;20020;-48
2023/05/23 05:30:52;;;;;;;33.00;8.50;;;;;;;12.48;100.00;102217.00;5075840;28;20507;-48
2023/05/23 05:33:18;;;;;;;30.25;7.30;;;;;;;12.49;100.00;102221.38;5078344;28;20360;-48
2023/05/23 05:35:43;;;;;;;25.83;7.00;;;;;;;12.52;100.00;102218.34;5076204;28;20025;-47
2023/05/23 05:38:09;;;;;;;24.17;6.25;;;;;;;12.55;100.00;102213.63;5074300;28;20419;-47
2023/05/23 05:40:35;;;;;;;22.77;6.63;;;;;;;12.58;100.00;102216.00;5071361;28;20039;-47
2023/05/23 05:43:00;;;;;;;26.38;6.20;;;;;;;12.57;100.00;102222.44;5070499;28;20163;-49
2023/05/23 05:45:26;;;;;;;23.35;6.40;;;;;;;12.55;100.00;102221.75;5077263;28;20028;-50
2023/05/23 05:47:51;;;;;;;34.83;6.43;;;;;;;12.43;100.00;102230.13;5092063;28;20032;-48
2023/05/23 05:50:19;;;;;;;30.45;6.22;;;;;;;12.51;100.00;102234.72;5083440;28;20117;-48
2023/05/23 05:52:44;;;;;;;32.13;5.45;;;;;;;12.48;100.00;102238.59;5090457;28;20024;-47
2023/05/23 05:55:10;;;;;;;24.98;5.03;;;;;;;12.49;100.00;102240.28;5090361;28;20046;-46
2023/05/23 05:57:39;;;;;;;19.77;4.90;;;;;;;12.48;100.00;102244.00;5080244;28;20127;-46
2023/05/23 06:00:13;;;;;;;15.50;4.80;;;;;;;12.48;100.00;102241.28;5090858;28;20071;-48
2023/05/23 06:02:39;;;;;;;25.60;4.47;;;;;;;12.44;100.00;102233.66;5077639;28;20040;-48
2023/05/23 06:05:06;;;;;;;16.10;3.92;;;;;;;12.35;100.00;102232.78;5074797;28;20426;-47
2023/05/23 06:07:33;;;;;;;14.97;3.83;;;;;;;12.34;100.00;102236.47;5077808;28;20024;-49
2023/05/23 06:09:58;;;;;;;10.70;3.67;;;;;;;12.37;100.00;102246.94;5092127;28;20049;-48
2023/05/23 06:12:23;;;;;;;19.77;3.95;;;;;;;12.43;100.00;102246.31;5074055;28;20069;-46
2023/05/23 06:14:48;;;;;;;18.75;3.97;;;;;;;12.45;100.00;102247.03;5085008;28;20112;-46
2023/05/23 06:17:14;;;;;;;18.55;3.92;;;;;;;12.43;100.00;102251.72;5093855;28;20433;-45
2023/05/23 06:19:39;;;;;;;31.08;5.25;;;;;;;12.50;100.00;102258.16;5094082;28;20398;-46
2023/05/23 06:22:05;;;;;;;23.95;3.92;;;;;;;12.44;100.00;102264.19;5092526;28;20024;-46
2023/05/23 06:24:30;;;;;;;32.70;3.80;;;;;;;12.51;100.00;102267.13;5084772;28;20119;-45
2023/05/23 06:26:55;;;;;;;26.20;4.30;;;;;;;12.67;100.00;102269.06;5074756;28;20033;-47
2023/05/23 06:29:21;;;;;;;32.60;4.07;;;;;;;13.55;100.00;102255.19;5074475;28;20021;-49
2023/05/23 06:31:46;;;;;;;22.75;3.63;;;;;;;14.43;100.00;102251.78;5073049;28;20108;-46
2023/05/23 06:34:11;;;;;;;19.75;2.97;;;;;;;14.57;100.00;102248.38;5073393;28;20031;-48
2023/05/23 06:36:37;;;;;;;15.93;3.08;;;;;;;14.58;100.00;102239.22;5071805;28;20047;-48
2023/05/23 06:39:02;;;;;;;29.98;3.78;;;;;;;14.85;100.00;102246.09;5073185;28;20017;-45
2023/05/23 06:41:27;;;;;;;20.67;3.42;;;;;;;15.16;100.00;102239.81;5072043;28;20036;-49
2023/05/23 06:43:53;;;;;;;22.15;3.15;;;;;;;15.28;100.00;102227.53;5073605;28;20466;-46
2023/05/23 06:46:18;;;;;;;36.85;3.90;;;;;;;15.21;100.00;102242.00;5073771;28;20505;-47
2023/05/23 06:48:43;;;;;;;29.17;4.22;;;;;;;15.11;100.00;102242.22;5071742;28;20552;-46
2023/05/23 06:51:09;;;;;;;23.35;3.45;;;;;;;14.93;100.00;102247.91;5082012;28;20046;-47
2023/05/23 06:53:35;;;;;;;34.80;4.10;;;;;;;14.66;100.00;102247.31;5091653;28;20056;-46
2023/05/23 06:56:00;;;;;;;33.08;4.57;;;;;;;14.35;100.00;102246.34;5093127;28;20031;-51
2023/05/23 06:58:28;;;;;;;29.85;4.47;;;;;;;14.21;100.00;102245.19;5092859;28;20056;-45
2023/05/23 07:00:53;;;;;;;26.92;3.90;;;;;;;14.43;100.00;102241.78;5092978;28;20028;-47
2023/05/23 07:03:18;;;;;;;31.75;4.88;;;;;;;15.28;100.00;102251.97;5093334;28;20086;-46
2023/05/23 07:05:44;;;;;;;29.58;3.60;;;;;;;15.88;100.00;102250.38;5091792;28;20509;-49
2023/05/23 07:08:09;;;;;;;40.10;4.57;;;;;;;15.90;100.00;102234.72;5092779;28;20464;-47
2023/05/23 07:10:35;;;;;;;34.58;4.45;;;;;;;15.76;100.00;102257.25;5093005;28;20028;-46
2023/05/23 07:13:00;;;;;;;25.42;4.30;;;;;;;15.91;100.00;102257.31;5093137;28;20024;-46
2023/05/23 07:15:26;;;;;;;31.30;3.83;;;;;;;15.89;100.00;102256.66;5093329;28;20039;-45
2023/05/23 07:17:51;;;;;;;30.92;3.88;;;;;;;15.82;100.00;102263.81;5091527;28;20027;-47
2023/05/23 07:20:16;;;;;;;25.40;4.18;;;;;;;15.86;100.00;102260.56;5092619;28;20024;-47
2023/05/23 07:22:42;;;;;;;36.53;4.97;;;;;;;15.63;100.00;102268.69;5093370;28;20026;-47
2023/05/23 07:25:08;;;;;;;32.88;4.30;;;;;;;15.58;100.00;102258.34;5092107;28;20485;-47
2023/05/23 07:27:34;;;;;;;29.77;3.90;;;;;;;15.34;100.00;102272.94;5092979;28;20103;-48
2023/05/23 07:30:00;;;;;;;18.20;3.17;;;;;;;15.19;100.00;102280.13;5090924;28;20052;-47
2023/05/23 07:32:25;;;;;;;19.05;3.20;;;;;;;15.12;100.00;102280.00;5092527;28;20058;-47
2023/05/23 07:34:50;;;;;;;21.60;3.17;;;;;;;15.59;100.00;102272.81;5091327;28;20032;-47
2023/05/23 07:37:16;;;;;;;28.95;4.18;;;;;;;16.06;100.00;102271.78;5092428;28;20028;-48
2023/05/23 07:39:41;;;;;;;28.35;3.50;;;;;;;16.21;100.00;102278.06;5092791;28;20027;-48
2023/05/23 07:42:06;;;;;;;32.13;3.80;;;;;;;16.18;100.00;102281.16;5093156;28;20028;-46
2023/05/23 07:44:32;;;;;;;23.80;3.95;;;;;;;16.23;100.00;102278.75;5091470;28;20450;-46
2023/05/23 07:46:57;;;;;;;31.70;4.40;;;;;;;16.23;100.00;102283.34;5092145;28;20043;-46
2023/05/23 07:49:22;;;;;;;37.97;4.78;;;;;;;16.32;100.00;102279.50;5090889;28;20425;-46
2023/05/23 07:51:48;;;;;;;36.05;4.07;;;;;;;16.94;100.00;102272.06;5092725;28;20146;-49
2023/05/23 07:54:13;;;;;;;27.17;3.75;;;;;;;17.16;100.00;102279.22;5091999;28;20096;-47
2023/05/23 07:56:39;;;;;;;25.70;3.75;;;;;;;17.21;98.23;102287.66;5092374;28;20420;-46
2023/05/23 07:59:04;;;;;;;20.13;3.53;;;;;;;17.10;98.68;102293.59;5092515;28;20097;-48
2023/05/23 08:01:30;;;;;;;26.83;4.30;;;;;;;16.50;100.00;102298.16;5092016;28;20028;-46
2023/05/23 08:03:55;;;;;;;27.13;3.63;;;;;;;16.28;100.00;102297.22;5092278;28;20016;-44
2023/05/23 08:06:21;;;;;;;28.67;4.18;;;;;;;15.97;100.00;102295.44;5091619;28;20397;-49
2023/05/23 08:08:46;;;;;;;38.75;4.25;;;;;;;15.74;100.00;102287.28;5092161;28;20031;-48
2023/05/23 08:11:11;;;;;;;33.88;4.90;;;;;;;15.57;100.00;102301.97;5091199;28;20096;-47
2023/05/23 08:13:37;;;;;;;22.25;3.63;;;;;;;15.83;100.00;102304.38;5092393;28;20089;-49
2023/05/23 08:16:02;;;;;;;29.63;4.03;;;;;;;16.51;100.00;102301.72;5092081;28;20035;-48
2023/05/23 08:18:29;;;;;;;24.52;3.97;;;;;;;17.30;100.00;102302.88;5073901;28;20470;-44
2023/05/23 08:20:55;;;;;;;31.57;4.03;;;;;;;17.81;99.66;102303.88;5090442;28;20366;-44
2023/05/23 08:23:20;;;;;;;29.25;3.97;;;;;;;17.54;99.15;102298.13;5090353;28;20370;-48
2023/05/23 08:25:45;;;;;;;24.17;4.32;;;;;;;17.17;99.02;102308.16;5090819;28;20377;-45
2023/05/23 08:28:11;;;;;;;28.30;4.72;;;;;;;16.90;100.00;102309.66;5090450;28;20036;-46
2023/05/23 08:30:36;;;;;;;25.52;3.78;;;;;;;16.93;100.00;102305.72;5091682;28;20016;-49
2023/05/23 08:33:03;;;;;;;25.45;4.63;;;;;;;17.55;95.91;102316.13;5091690;28;20066;-50
2023/05/23 08:35:33;;;;;;;22.27;3.72;;;;;;;17.95;93.07;102317.41;5091373;28;20028;-50
2023/05/23 08:38:00;;;;;;;24.10;3.97;;;;;;;18.02;89.92;102317.47;5091534;28;20032;-48
2023/05/23 08:40:28;;;;;;;22.58;3.50;;;;;;;18.47;86.43;102334.41;5090683;28;20028;-46
2023/05/23 08:42:53;;;;;;;19.35;3.83;;;;;;;18.26;87.44;102320.81;5091707;28;20141;-47
2023/05/23 08:45:18;;;;;;;17.35;3.72;;;;;;;18.48;87.66;102317.00;5091378;28;20081;-50
2023/05/23 08:47:45;;;;;;;24.67;4.45;;;;;;;18.21;91.36;102324.13;5090543;28;20332;-48
2023/05/23 08:50:12;;;;;;;29.02;4.60;;;;;;;17.68;92.44;102316.25;5091016;28;20059;-47
2023/05/23 08:52:42;;;;;;;27.20;4.47;;;;;;;17.35;95.93;102332.19;5072809;28;20030;-47
2023/05/23 08:55:08;;;;;;;24.90;4.40;;;;;;;17.34;93.46;102320.47;5091755;28;20494;-45
2023/05/23 08:57:35;;;;;;;28.90;3.60;;;;;;;17.59;93.64;102322.88;5091029;28;20116;-46
2023/05/23 09:00:04;;;;;;;24.33;3.72;;;;;;;17.80;91.71;102323.94;5090994;28;20089;-46
2023/05/23 09:02:31;;;;;;;26.95;3.70;;;;;;;17.63;92.93;102328.78;5090790;28;20060;-47
2023/05/23 09:04:56;;;;;;;15.20;3.35;;;;;;;17.17;93.73;102329.91;5091003;28;20024;-47
2023/05/23 09:07:21;;;;;;;20.92;3.78;;;;;;;16.88;96.91;102342.50;5090845;28;20042;-45
2023/05/23 09:09:47;;;;;;;25.75;3.70;;;;;;;16.58;98.50;102329.84;5090735;28;20024;-51
2023/05/23 09:12:12;;;;;;;21.38;3.75;;;;;;;16.38;98.75;102340.44;5091049;28;20032;-46
2023/05/23 09:14:38;;;;;;;31.63;3.78;;;;;;;16.28;100.00;102346.09;5089466;28;20539;-49
2023/05/23 09:17:03;;;;;;;23.40;4.20;;;;;;;16.46;100.00;102354.78;5091165;28;20424;-47
2023/05/23 09:19:28;;;;;;;20.92;3.33;;;;;;;16.98;98.64;102347.66;5091030;28;20341;-48
2023/05/23 09:21:54;;;;;;;17.13;3.15;;;;;;;17.53;94.61;102351.69;5090823;28;20381;-48
2023/05/23 09:24:20;;;;;;;33.67;3.75;;;;;;;17.23;96.03;102337.31;5090740;28;20089;-46
2023/05/23 09:26:47;;;;;;;17.88;3.67;;;;;;;17.29;97.54;102346.59;5089315;28;20024;-50
2023/05/23 09:29:12;;;;;;;30.92;4.38;;;;;;;17.56;94.68;102350.47;5089572;28;20339;-47
2023/05/23 09:31:38;;;;;;;23.27;3.42;;;;;;;17.83;91.02;102357.09;5089555;28;20039;-45
2023/05/23 09:34:03;;;;;;;21.50;3.08;;;;;;;18.09;89.78;102366.56;5090488;28;20035;-45
2023/05/23 09:36:33;;;;;;;23.55;3.42;;;;;;;17.80;90.48;102372.97;5090672;28;20448;-45
2023/05/23 09:39:03;;;;;;;41.05;4.63;;;;;;;17.20;94.46;102367.63;5091175;28;20036;-45
2023/05/23 09:41:29;;;;;;;31.73;3.75;;;;;;;16.97;97.57;102377.75;5090527;28;20351;-46
2023/05/23 09:43:55;;;;;;;22.58;4.15;;;;;;;17.13;96.24;102374.00;5090353;28;20119;-48
2023/05/23 09:46:21;;;;;;;26.75;3.72;;;;;;;17.52;93.83;102374.50;5089673;28;20411;-46
2023/05/23 09:48:51;;;;;;;13.73;3.13;;;;;;;17.62;91.88;102370.66;5089084;28;20535;-47
2023/05/23 09:51:19;;;;;;;28.88;3.95;;;;;;;17.61;94.81;102372.50;5090486;28;20020;-47
2023/05/23 09:53:45;;;;;;;21.95;3.83;;;;;;;17.60;92.26;102375.44;5090850;28;20401;-45
2023/05/23 09:56:10;;;;;;;28.45;4.22;;;;;;;17.21;93.59;102377.47;5088715;28;20059;-48
2023/05/23 09:58:39;;;;;;;18.95;3.20;;;;;;;16.84;96.38;102373.78;5089058;28;20082;-48
2023/05/23 10:01:06;;;;;;;19.60;4.00;;;;;;;16.53;98.19;102381.22;5090401;28;20024;-45
2023/05/23 10:03:39;;;;;;;21.58;3.90;;;;;;;16.40;100.00;102388.13;5089710;28;20024;-47
2023/05/23 10:06:22;;;;;;;19.75;3.47;;;;;;;16.18;100.00;102380.81;5089409;28;20024;-48
2023/05/23 10:08:57;;;;;;;35.38;4.40;;;;;;;15.96;100.00;102380.66;5090381;28;20040;-48
2023/05/23 10:12:01;;;;;;;20.38;4.07;;;;;;;15.97;100.00;102382.31;5088925;28;20028;-46
2023/05/23 10:14:28;;;;;;;24.15;4.10;;;;;;;15.78;100.00;102382.78;5059157;28;20032;-44
2023/05/23 10:17:09;;;;;;;18.95;3.10;;;;;;;15.70;100.00;102378.25;5090044;28;20107;-46
2023/05/23 10:19:43;;;;;;;23.45;3.33;;;;;;;15.75;100.00;102372.31;5088972;28;20702;-45
2023/05/23 10:22:10;;;;;;;26.35;4.30;;;;;;;15.73;100.00;102379.78;5089124;28;20062;-46
2023/05/23 10:24:35;;;;;;;15.50;2.80;;;;;;;15.97;100.00;102374.19;5088658;28;20107;-45
2023/05/23 10:27:02;;;;;;;27.60;3.92;;;;;;;16.26;99.93;102375.31;5088894;28;20328;-49
2023/05/23 10:29:28;;;;;;;25.63;3.70;;;;;;;16.18;97.72;102380.81;5090256;28;20020;-46
2023/05/23 10:31:55;;;;;;;25.50;3.58;;;;;;;16.16;99.46;102388.31;5090247;28;20028;-46
2023/05/23 10:34:29;;;;;;;26.85;3.85;;;;;;;16.17;97.66;102393.56;5091160;28;20035;-46
2023/05/23 10:36:59;;;;;;;19.55;3.30;;;;;;;16.20;94.04;102397.78;5093759;28;20082;-47
2023/05/23 10:39:56;;;;;;;19.40;2.80;;;;;;;17.00;93.42;102391.81;5094094;28;20020;-47
2023/05/23 10:42:34;;;;;;;15.90;2.80;;;;;;;17.67;86.57;102396.28;5083179;28;20044;-46
2023/05/23 10:45:21;;;;;;;;;;;;;;;17.91;85.00;102397.00;5094058;28;20480;-46
2023/05/23 10:47:48;;;;;;;15.27;2.60;;;;;;;18.40;86.27;102399.81;5093840;28;19904;-45
2023/05/23 10:50:16;;;;;;;22.33;3.10;;;;;;;18.90;84.22;102397.06;5092410;28;20393;-48
2023/05/23 10:52:42;;;;;;;14.48;2.65;;;;;;;18.64;81.67;102397.66;5093723;28;20099;-45
2023/05/23 10:55:16;;;;;;;12.93;2.60;;;;;;;18.62;81.14;102399.75;5074825;28;20174;-46
2023/05/23 10:57:43;;;;;;;11.48;2.47;;;;;;;19.30;75.42;102391.84;5093133;28;20023;-46
2023/05/23 11:00:18;;;;;;;14.25;2.55;;;;;;;18.62;76.23;102395.16;5092173;28;20457;-47
2023/05/23 11:02:55;;;;;;;23.40;2.70;;;;;;;18.02;78.88;102387.47;5093657;28;20024;-45
2023/05/23 11:05:21;;;;;;;14.63;2.60;;;;;;;18.20;79.91;102401.50;5092146;28;20607;-48
2023/05/23 11:08:07;;;;;;;14.40;2.97;;;;;;;18.78;75.92;102394.03;5092231;28;20059;-47